x

Sacrifice Island, Mexico (sacv4) Weather Station

7:00pm - Tue 28th Jun 2016 All times are CDT. -5 hours from GMT.

  • Wind
  • Air Temp 85°f
  • Sea Pressure 1014.3mb
  • Sacrifice Island, Mexico
  • Sacrifice Island, Mexico

More Historic Weather Station data

Upgrade to MSW Pro to gain access to the past 30 days of data for over 8000 Wavebouys and Weather Stations around the globe.

Join Pro

Comparision Forecast

View Surf forecast
   
Tue 06/28 7:00pm  -  2 mph 1014.3mb 85f
6:00pm 2 7 mph 1014mb 86f
5:00pm 2 6 mph 1014mb 86f
4:00pm 5 9 mph 1014.6mb 86f
3:00pm 5 8 mph 1014.8mb 85f
2:00pm 9 13 mph 1015.5mb 85f
1:00pm 10 13 mph 1016mb 83f
12:00pm 10 13 mph 1016.4mb 83f
11:00am 8
mph
1017mb 82f
10:00am 9 10 mph 1017mb 81f
9:00am 10 11 mph 1016.6mb 80f
8:00am 9 10 mph 1016.7mb 81f
7:00am 5 6 mph 1015.8mb 81f
6:00am 5 6 mph 1015.3mb 81f
5:00am 5 6 mph 1014.6mb 82f
4:00am 5 6 mph 1014.5mb 82f
3:00am 6 7 mph 1014.8mb 80f
2:00am 8 10 mph 1015.6mb 82f
1:00am  -  mph 1016.4mb 83f
12:00am  -  1 mph 1016.9mb 83f
Mon 06/27 11:00pm  -  1 mph 1016.7mb 83f
10:00pm  -  1 mph 1015.9mb 83f
9:00pm 3 7 mph 1015.1mb 83f
8:00pm 1 2 mph 1014.4mb 84f
7:00pm 9 13 mph 1014mb 84f
6:00pm 9 13 mph 1013.2mb 85f
5:00pm 6 9 mph 1014.1mb 84f
4:00pm 13 17 mph 1014.5mb 85f
3:00pm 9 11 mph 1015.1mb 84f
2:00pm 5 9 mph 1015.7mb 85f
1:00pm 8 10 mph 1015.9mb 83f
12:00pm 8 10 mph 1016.6mb 83f
11:00am 7 8 mph 1016.9mb 82f
10:00am 8 9 mph 1016.7mb 82f
9:00am 8
mph
1016.5mb 82f
8:00am 9 10 mph 1016.1mb 81f
7:00am 2 6 mph 1015.6mb 83f
6:00am 6 7 mph 1015.1mb 83f
5:00am 6 7 mph 1014.5mb 83f
4:00am 6 7 mph 1014.5mb 83f
3:00am 5 6 mph 1015.2mb 83f
2:00am 3 5 mph 1015.5mb 83f
1:00am 3 5 mph 1016mb 83f
12:00am  -  3 mph 1016.5mb 83f
Sun 06/26 11:00pm  -  2 mph 1016.5mb 84f
10:00pm 1 6 mph 1015.8mb 84f
9:00pm 3 5 mph 1014.7mb 84f
8:00pm  -  2 mph 1014.3mb 84f
7:00pm 2 7 mph 1013.6mb 85f
6:00pm 1 7 mph 1013.3mb 86f
5:00pm  -  3 mph 1013.8mb 87f
4:00pm  -  3 mph 1014.4mb 87f
3:00pm 2 6 mph 1014.6mb 87f
2:00pm 6 9 mph 1015.3mb 86f
1:00pm 5 7 mph 1015.7mb 85f
12:00pm 7 8 mph 1015.9mb 83f
11:00am 5 8 mph 1015.9mb 84f
10:00am 5 6 mph 1015.9mb 84f
9:00am 2 5 mph 1015.7mb 84f
8:00am 3 7 mph 1015.1mb 83f
7:00am 3 7 mph 1014.3mb 82f
6:00am 6 7 mph 1013.8mb 83f
5:00am 6 7 mph 1014.2mb 83f
4:00am 7 8 mph 1014.5mb 83f
3:00am 3 5 mph 1015.2mb 83f
2:00am  -  2 mph 1015.6mb 84f
1:00am 1 5 mph 1015.8mb 83f
12:00am  -  2 mph 1015.7mb 84f
Sat 06/25 11:00pm  -  3 mph 1015.4mb 84f
10:00pm 1 6 mph 1014.7mb 84f
9:00pm 2 6 mph 1014.2mb 83f
8:00pm 3 7 mph 1013.7mb 83f
7:00pm 6 9 mph 1013.2mb 83f
6:00pm 1 7 mph 1012.8mb 84f
5:00pm 2 6 mph 1013mb 85f
4:00pm  -  3 mph 1013.3mb 85f
3:00pm 5 8 mph 1013.4mb 85f
2:00pm 2 5 mph 1014.3mb 84f
1:00pm 2 6 mph 1014.8mb 84f
12:00pm 5 7 mph 1015.2mb 83f
11:00am 3 6 mph 1015.3mb 82f
10:00am 7
mph
1014.7mb 81f
9:00am 3 5 mph 1014.3mb 81f
8:00am 1 2 mph 1014.1mb 80f
7:00am 7 8 mph 1013.3mb 80f
6:00am 9 10 mph 1013.1mb 78f
5:00am 9
mph
1013.3mb 80f
4:00am  -  mph 1013.4mb 81f
3:00am 1 2 mph 1013.7mb 81f
2:00am 2 9 mph 1014.5mb 82f